sensor_id;sensor_type;location;lat;lon;timestamp;temperature;humidity
1702;DHT22;848;48.354;10.064;2023-12-20T00:01:16;5.90;99.90
1702;DHT22;848;48.354;10.064;2023-12-20T00:03:44;5.90;99.90
1702;DHT22;848;48.354;10.064;2023-12-20T00:06:11;5.90;99.90
1702;DHT22;848;48.354;10.064;2023-12-20T00:08:38;5.90;99.90
1702;DHT22;848;48.354;10.064;2023-12-20T00:11:05;5.90;99.90
1702;DHT22;848;48.354;10.064;2023-12-20T00:13:32;5.90;99.90
1702;DHT22;848;48.354;10.064;2023-12-20T00:15:58;5.90;99.90
1702;DHT22;848;48.354;10.064;2023-12-20T00:18:29;5.90;99.90
1702;DHT22;848;48.354;10.064;2023-12-20T00:20:58;5.90;99.90
1702;DHT22;848;48.354;10.064;2023-12-20T00:23:24;5.90;99.90
1702;DHT22;848;48.354;10.064;2023-12-20T00:25:51;5.90;99.90
1702;DHT22;848;48.354;10.064;2023-12-20T00:28:18;5.90;99.90
1702;DHT22;848;48.354;10.064;2023-12-20T00:30:45;5.90;99.90
1702;DHT22;848;48.354;10.064;2023-12-20T00:33:12;5.80;99.90
1702;DHT22;848;48.354;10.064;2023-12-20T00:35:39;5.80;99.90
1702;DHT22;848;48.354;10.064;2023-12-20T00:38:08;5.80;99.90
1702;DHT22;848;48.354;10.064;2023-12-20T00:40:35;6.00;99.90
1702;DHT22;848;48.354;10.064;2023-12-20T00:43:02;5.80;99.90
1702;DHT22;848;48.354;10.064;2023-12-20T00:45:29;5.80;99.90
1702;DHT22;848;48.354;10.064;2023-12-20T00:47:56;5.80;99.90
1702;DHT22;848;48.354;10.064;2023-12-20T00:50:23;5.80;99.90
1702;DHT22;848;48.354;10.064;2023-12-20T00:52:50;5.80;99.90
1702;DHT22;848;48.354;10.064;2023-12-20T00:55:18;5.90;99.90
1702;DHT22;848;48.354;10.064;2023-12-20T00:57:45;5.90;99.90
1702;DHT22;848;48.354;10.064;2023-12-20T01:00:13;5.90;99.90
1702;DHT22;848;48.354;10.064;2023-12-20T01:02:40;5.90;99.90
1702;DHT22;848;48.354;10.064;2023-12-20T01:05:07;6.00;99.90
1702;DHT22;848;48.354;10.064;2023-12-20T01:07:34;5.90;99.90
1702;DHT22;848;48.354;10.064;2023-12-20T01:10:01;5.90;99.90
1702;DHT22;848;48.354;10.064;2023-12-20T01:12:30;5.90;99.90
1702;DHT22;848;48.354;10.064;2023-12-20T01:14:57;5.90;99.90
1702;DHT22;848;48.354;10.064;2023-12-20T01:17:24;5.90;99.90
1702;DHT22;848;48.354;10.064;2023-12-20T01:19:50;6.10;99.90
1702;DHT22;848;48.354;10.064;2023-12-20T01:22:16;6.10;99.90
1702;DHT22;848;48.354;10.064;2023-12-20T01:24:43;5.90;99.90
1702;DHT22;848;48.354;10.064;2023-12-20T01:27:10;5.90;99.90
1702;DHT22;848;48.354;10.064;2023-12-20T01:29:38;5.90;99.90
1702;DHT22;848;48.354;10.064;2023-12-20T01:32:06;5.90;99.90
1702;DHT22;848;48.354;10.064;2023-12-20T01:34:33;5.90;99.90
1702;DHT22;848;48.354;10.064;2023-12-20T01:36:59;5.90;99.90
1702;DHT22;848;48.354;10.064;2023-12-20T01:39:26;5.80;99.90
1702;DHT22;848;48.354;10.064;2023-12-20T01:41:53;5.80;99.90
1702;DHT22;848;48.354;10.064;2023-12-20T01:44:20;5.80;99.90
1702;DHT22;848;48.354;10.064;2023-12-20T01:46:48;5.80;99.90
1702;DHT22;848;48.354;10.064;2023-12-20T01:49:16;5.90;99.90
1702;DHT22;848;48.354;10.064;2023-12-20T01:51:50;6.00;99.90
1702;DHT22;848;48.354;10.064;2023-12-20T01:54:17;5.90;99.90
1702;DHT22;848;48.354;10.064;2023-12-20T01:56:46;5.90;99.90
1702;DHT22;848;48.354;10.064;2023-12-20T01:59:13;5.90;99.90
1702;DHT22;848;48.354;10.064;2023-12-20T02:01:39;5.90;99.90
1702;DHT22;848;48.354;10.064;2023-12-20T02:04:09;5.90;99.90
1702;DHT22;848;48.354;10.064;2023-12-20T02:06:37;5.80;99.90
1702;DHT22;848;48.354;10.064;2023-12-20T02:09:07;5.90;99.90
1702;DHT22;848;48.354;10.064;2023-12-20T02:11:34;5.80;99.90
1702;DHT22;848;48.354;10.064;2023-12-20T02:14:02;5.70;99.90
1702;DHT22;848;48.354;10.064;2023-12-20T02:16:32;5.70;99.90
1702;DHT22;848;48.354;10.064;2023-12-20T02:18:59;5.70;99.90
1702;DHT22;848;48.354;10.064;2023-12-20T02:21:32;5.80;99.90
1702;DHT22;848;48.354;10.064;2023-12-20T02:24:00;5.80;99.90
1702;DHT22;848;48.354;10.064;2023-12-20T02:26:27;5.70;99.90
1702;DHT22;848;48.354;10.064;2023-12-20T02:28:54;5.80;99.90
1702;DHT22;848;48.354;10.064;2023-12-20T02:31:22;5.70;99.90
1702;DHT22;848;48.354;10.064;2023-12-20T02:33:48;5.70;99.90
1702;DHT22;848;48.354;10.064;2023-12-20T02:36:15;5.70;99.90
1702;DHT22;848;48.354;10.064;2023-12-20T02:38:44;5.70;99.90
1702;DHT22;848;48.354;10.064;2023-12-20T02:41:10;5.70;99.90
1702;DHT22;848;48.354;10.064;2023-12-20T02:43:37;5.70;99.90
1702;DHT22;848;48.354;10.064;2023-12-20T02:46:07;5.70;99.90
1702;DHT22;848;48.354;10.064;2023-12-20T02:48:34;5.70;99.90
1702;DHT22;848;48.354;10.064;2023-12-20T02:51:01;5.60;99.90
1702;DHT22;848;48.354;10.064;2023-12-20T02:53:28;5.60;99.90
1702;DHT22;848;48.354;10.064;2023-12-20T02:55:59;5.60;99.90
1702;DHT22;848;48.354;10.064;2023-12-20T02:58:26;5.60;99.90
1702;DHT22;848;48.354;10.064;2023-12-20T03:00:52;5.70;99.90
1702;DHT22;848;48.354;10.064;2023-12-20T03:03:19;5.70;99.90
1702;DHT22;848;48.354;10.064;2023-12-20T03:05:46;5.60;99.90
1702;DHT22;848;48.354;10.064;2023-12-20T03:08:13;5.60;99.90
1702;DHT22;848;48.354;10.064;2023-12-20T03:10:40;5.60;99.90
1702;DHT22;848;48.354;10.064;2023-12-20T03:13:08;5.60;99.90
1702;DHT22;848;48.354;10.064;2023-12-20T03:15:35;5.70;99.90
1702;DHT22;848;48.354;10.064;2023-12-20T03:18:03;5.70;99.90
1702;DHT22;848;48.354;10.064;2023-12-20T03:20:29;5.70;99.90
1702;DHT22;848;48.354;10.064;2023-12-20T03:22:59;5.70;99.90
1702;DHT22;848;48.354;10.064;2023-12-20T03:25:26;5.70;99.90
1702;DHT22;848;48.354;10.064;2023-12-20T03:27:53;5.80;99.90
1702;DHT22;848;48.354;10.064;2023-12-20T03:30:21;5.90;99.90
1702;DHT22;848;48.354;10.064;2023-12-20T03:32:50;5.70;99.90
1702;DHT22;848;48.354;10.064;2023-12-20T03:35:17;5.80;99.90
1702;DHT22;848;48.354;10.064;2023-12-20T03:37:44;5.70;99.90
1702;DHT22;848;48.354;10.064;2023-12-20T03:40:11;5.70;99.90
1702;DHT22;848;48.354;10.064;2023-12-20T03:42:38;5.70;99.90
1702;DHT22;848;48.354;10.064;2023-12-20T03:45:06;5.60;99.90
1702;DHT22;848;48.354;10.064;2023-12-20T03:47:34;5.70;99.90
1702;DHT22;848;48.354;10.064;2023-12-20T03:50:01;5.70;99.90
1702;DHT22;848;48.354;10.064;2023-12-20T03:52:28;5.70;99.90
1702;DHT22;848;48.354;10.064;2023-12-20T03:54:54;5.60;99.90
1702;DHT22;848;48.354;10.064;2023-12-20T03:57:21;5.60;99.90
1702;DHT22;848;48.354;10.064;2023-12-20T03:59:48;5.60;99.90
1702;DHT22;848;48.354;10.064;2023-12-20T04:02:15;5.60;99.90
1702;DHT22;848;48.354;10.064;2023-12-20T04:04:44;5.60;99.90
1702;DHT22;848;48.354;10.064;2023-12-20T04:07:11;5.60;99.90
1702;DHT22;848;48.354;10.064;2023-12-20T04:09:38;5.80;99.90
1702;DHT22;848;48.354;10.064;2023-12-20T04:12:05;5.50;99.90
1702;DHT22;848;48.354;10.064;2023-12-20T04:14:32;5.60;99.90
1702;DHT22;848;48.354;10.064;2023-12-20T04:16:59;5.60;99.90
1702;DHT22;848;48.354;10.064;2023-12-20T04:19:26;5.60;99.90
1702;DHT22;848;48.354;10.064;2023-12-20T04:21:54;5.60;99.90
1702;DHT22;848;48.354;10.064;2023-12-20T04:24:21;5.60;99.90
1702;DHT22;848;48.354;10.064;2023-12-20T04:26:48;5.60;99.90
1702;DHT22;848;48.354;10.064;2023-12-20T04:29:15;5.60;99.90
1702;DHT22;848;48.354;10.064;2023-12-20T04:31:42;5.80;99.90
1702;DHT22;848;48.354;10.064;2023-12-20T04:34:09;5.70;99.90
1702;DHT22;848;48.354;10.064;2023-12-20T04:36:36;5.70;99.90
1702;DHT22;848;48.354;10.064;2023-12-20T04:39:04;5.70;99.90
1702;DHT22;848;48.354;10.064;2023-12-20T04:41:31;5.70;99.90
1702;DHT22;848;48.354;10.064;2023-12-20T04:43:57;5.70;99.90
1702;DHT22;848;48.354;10.064;2023-12-20T04:46:24;5.70;99.90
1702;DHT22;848;48.354;10.064;2023-12-20T04:48:51;5.70;99.90
1702;DHT22;848;48.354;10.064;2023-12-20T04:51:18;5.70;99.90
1702;DHT22;848;48.354;10.064;2023-12-20T04:53:45;5.70;99.90
1702;DHT22;848;48.354;10.064;2023-12-20T04:56:13;5.70;99.90
1702;DHT22;848;48.354;10.064;2023-12-20T04:58:40;5.90;99.90
1702;DHT22;848;48.354;10.064;2023-12-20T05:01:09;5.70;99.90
1702;DHT22;848;48.354;10.064;2023-12-20T05:03:36;5.70;99.90
1702;DHT22;848;48.354;10.064;2023-12-20T05:06:03;5.80;99.90
1702;DHT22;848;48.354;10.064;2023-12-20T05:08:30;5.70;99.90
1702;DHT22;848;48.354;10.064;2023-12-20T05:10:57;5.80;99.90
1702;DHT22;848;48.354;10.064;2023-12-20T05:13:25;5.90;99.90
1702;DHT22;848;48.354;10.064;2023-12-20T05:15:52;5.70;99.90
1702;DHT22;848;48.354;10.064;2023-12-20T05:18:20;5.70;99.90
1702;DHT22;848;48.354;10.064;2023-12-20T05:20:48;5.70;99.90
1702;DHT22;848;48.354;10.064;2023-12-20T05:23:15;5.80;99.90
1702;DHT22;848;48.354;10.064;2023-12-20T05:25:43;5.80;99.90
1702;DHT22;848;48.354;10.064;2023-12-20T05:28:09;5.80;99.90
1702;DHT22;848;48.354;10.064;2023-12-20T05:30:38;5.90;99.90
1702;DHT22;848;48.354;10.064;2023-12-20T05:33:04;5.80;99.90
1702;DHT22;848;48.354;10.064;2023-12-20T05:35:31;5.80;99.90
1702;DHT22;848;48.354;10.064;2023-12-20T05:37:58;5.70;99.90
1702;DHT22;848;48.354;10.064;2023-12-20T05:40:25;5.70;99.90
1702;DHT22;848;48.354;10.064;2023-12-20T05:42:52;5.80;99.90
1702;DHT22;848;48.354;10.064;2023-12-20T05:45:19;5.80;99.90
1702;DHT22;848;48.354;10.064;2023-12-20T05:47:47;5.80;99.90
1702;DHT22;848;48.354;10.064;2023-12-20T05:50:14;5.90;99.90
1702;DHT22;848;48.354;10.064;2023-12-20T05:52:41;5.80;99.90
1702;DHT22;848;48.354;10.064;2023-12-20T05:55:08;5.90;99.90
1702;DHT22;848;48.354;10.064;2023-12-20T05:57:35;5.80;99.90
1702;DHT22;848;48.354;10.064;2023-12-20T06:00:02;5.80;99.90
1702;DHT22;848;48.354;10.064;2023-12-20T06:02:30;5.90;99.90
1702;DHT22;848;48.354;10.064;2023-12-20T06:04:58;5.80;99.90
1702;DHT22;848;48.354;10.064;2023-12-20T06:07:25;5.80;99.90
1702;DHT22;848;48.354;10.064;2023-12-20T06:09:51;6.00;99.90
1702;DHT22;848;48.354;10.064;2023-12-20T06:12:18;6.00;99.90
1702;DHT22;848;48.354;10.064;2023-12-20T06:14:45;5.80;99.90
1702;DHT22;848;48.354;10.064;2023-12-20T06:17:12;5.80;99.90
1702;DHT22;848;48.354;10.064;2023-12-20T06:19:39;5.80;99.90
1702;DHT22;848;48.354;10.064;2023-12-20T06:22:09;5.90;99.90
1702;DHT22;848;48.354;10.064;2023-12-20T06:24:36;6.10;99.90
1702;DHT22;848;48.354;10.064;2023-12-20T06:27:03;5.90;99.90
1702;DHT22;848;48.354;10.064;2023-12-20T06:29:30;5.90;99.90
1702;DHT22;848;48.354;10.064;2023-12-20T06:31:57;5.80;99.90
1702;DHT22;848;48.354;10.064;2023-12-20T06:34:24;5.80;99.90
1702;DHT22;848;48.354;10.064;2023-12-20T06:36:51;5.80;99.90
1702;DHT22;848;48.354;10.064;2023-12-20T06:39:19;5.80;99.90
1702;DHT22;848;48.354;10.064;2023-12-20T06:41:46;5.80;99.90
1702;DHT22;848;48.354;10.064;2023-12-20T06:44:13;5.90;99.90
1702;DHT22;848;48.354;10.064;2023-12-20T06:46:39;5.80;99.90
1702;DHT22;848;48.354;10.064;2023-12-20T06:49:06;5.90;99.90
1702;DHT22;848;48.354;10.064;2023-12-20T06:51:33;5.90;99.90
1702;DHT22;848;48.354;10.064;2023-12-20T06:54:00;5.90;99.90
1702;DHT22;848;48.354;10.064;2023-12-20T06:56:29;5.80;99.90
1702;DHT22;848;48.354;10.064;2023-12-20T06:58:56;5.80;99.90
1702;DHT22;848;48.354;10.064;2023-12-20T07:01:23;5.80;99.90
1702;DHT22;848;48.354;10.064;2023-12-20T07:03:50;5.90;99.90
1702;DHT22;848;48.354;10.064;2023-12-20T07:06:16;5.80;99.90
1702;DHT22;848;48.354;10.064;2023-12-20T07:08:45;5.80;99.90
1702;DHT22;848;48.354;10.064;2023-12-20T07:11:11;5.70;99.90
1702;DHT22;848;48.354;10.064;2023-12-20T07:13:40;5.70;99.90
1702;DHT22;848;48.354;10.064;2023-12-20T07:16:07;5.70;99.90
1702;DHT22;848;48.354;10.064;2023-12-20T07:18:33;5.70;99.90
1702;DHT22;848;48.354;10.064;2023-12-20T07:21:00;5.70;99.90
1702;DHT22;848;48.354;10.064;2023-12-20T07:23:27;5.70;99.90
1702;DHT22;848;48.354;10.064;2023-12-20T07:25:54;5.80;99.90
1702;DHT22;848;48.354;10.064;2023-12-20T07:28:21;5.70;99.90
1702;DHT22;848;48.354;10.064;2023-12-20T07:30:49;5.70;99.90
1702;DHT22;848;48.354;10.064;2023-12-20T07:33:16;5.60;99.90
1702;DHT22;848;48.354;10.064;2023-12-20T07:35:43;5.60;99.90
1702;DHT22;848;48.354;10.064;2023-12-20T07:38:10;5.60;99.90
1702;DHT22;848;48.354;10.064;2023-12-20T07:40:38;5.60;99.90
1702;DHT22;848;48.354;10.064;2023-12-20T07:43:05;5.60;99.90
1702;DHT22;848;48.354;10.064;2023-12-20T07:45:32;5.60;99.90
1702;DHT22;848;48.354;10.064;2023-12-20T07:48:00;5.60;99.90
1702;DHT22;848;48.354;10.064;2023-12-20T07:50:27;5.60;99.90
1702;DHT22;848;48.354;10.064;2023-12-20T07:52:54;5.60;99.90
1702;DHT22;848;48.354;10.064;2023-12-20T07:55:21;5.60;99.90
1702;DHT22;848;48.354;10.064;2023-12-20T07:57:48;5.60;99.90
1702;DHT22;848;48.354;10.064;2023-12-20T08:00:15;5.60;99.90
1702;DHT22;848;48.354;10.064;2023-12-20T08:02:43;5.70;99.90
1702;DHT22;848;48.354;10.064;2023-12-20T08:05:11;5.70;99.90
1702;DHT22;848;48.354;10.064;2023-12-20T08:07:39;5.70;99.90
1702;DHT22;848;48.354;10.064;2023-12-20T08:10:06;5.70;99.90
1702;DHT22;848;48.354;10.064;2023-12-20T08:12:33;5.70;99.90
1702;DHT22;848;48.354;10.064;2023-12-20T08:15:01;5.70;99.90
1702;DHT22;848;48.354;10.064;2023-12-20T08:17:29;5.80;99.90
1702;DHT22;848;48.354;10.064;2023-12-20T08:19:56;5.90;99.90
1702;DHT22;848;48.354;10.064;2023-12-20T08:22:24;5.90;99.90
1702;DHT22;848;48.354;10.064;2023-12-20T08:24:51;5.90;99.90
1702;DHT22;848;48.354;10.064;2023-12-20T08:28:52;5.90;99.90
1702;DHT22;848;48.354;10.064;2023-12-20T08:31:19;6.00;99.90
1702;DHT22;848;48.354;10.064;2023-12-20T08:33:47;6.00;99.90
1702;DHT22;848;48.354;10.064;2023-12-20T08:36:14;6.00;99.90
1702;DHT22;848;48.354;10.064;2023-12-20T08:38:43;6.00;99.90
1702;DHT22;848;48.354;10.064;2023-12-20T08:41:10;6.10;99.90
1702;DHT22;848;48.354;10.064;2023-12-20T08:43:37;6.10;99.90
1702;DHT22;848;48.354;10.064;2023-12-20T08:46:07;6.10;99.90
1702;DHT22;848;48.354;10.064;2023-12-20T08:48:35;6.20;99.90
1702;DHT22;848;48.354;10.064;2023-12-20T08:51:03;6.30;99.90
1702;DHT22;848;48.354;10.064;2023-12-20T08:53:30;6.40;99.90
1702;DHT22;848;48.354;10.064;2023-12-20T08:55:56;6.40;99.90
1702;DHT22;848;48.354;10.064;2023-12-20T08:58:26;6.50;99.90
1702;DHT22;848;48.354;10.064;2023-12-20T09:00:53;6.60;99.90
1702;DHT22;848;48.354;10.064;2023-12-20T09:03:21;6.60;99.90
1702;DHT22;848;48.354;10.064;2023-12-20T09:05:48;6.60;99.90
1702;DHT22;848;48.354;10.064;2023-12-20T09:08:15;6.40;99.90
1702;DHT22;848;48.354;10.064;2023-12-20T09:10:42;6.50;99.90
1702;DHT22;848;48.354;10.064;2023-12-20T09:13:13;6.30;99.90
1702;DHT22;848;48.354;10.064;2023-12-20T09:15:39;6.30;99.90
1702;DHT22;848;48.354;10.064;2023-12-20T09:18:06;6.20;99.90
1702;DHT22;848;48.354;10.064;2023-12-20T09:20:35;6.30;99.90
1702;DHT22;848;48.354;10.064;2023-12-20T09:23:02;6.30;99.90
1702;DHT22;848;48.354;10.064;2023-12-20T09:25:29;6.20;99.90
1702;DHT22;848;48.354;10.064;2023-12-20T09:27:56;6.10;99.90
1702;DHT22;848;48.354;10.064;2023-12-20T09:30:23;6.10;99.90
1702;DHT22;848;48.354;10.064;2023-12-20T09:32:50;6.00;99.90
1702;DHT22;848;48.354;10.064;2023-12-20T09:35:17;6.10;99.90
1702;DHT22;848;48.354;10.064;2023-12-20T09:37:45;6.20;99.90
1702;DHT22;848;48.354;10.064;2023-12-20T09:40:13;6.40;99.90
1702;DHT22;848;48.354;10.064;2023-12-20T09:42:54;6.40;99.90
1702;DHT22;848;48.354;10.064;2023-12-20T09:45:22;6.40;99.90
1702;DHT22;848;48.354;10.064;2023-12-20T09:47:50;6.40;99.90
1702;DHT22;848;48.354;10.064;2023-12-20T09:50:18;6.50;99.90
1702;DHT22;848;48.354;10.064;2023-12-20T09:52:50;6.50;99.90
1702;DHT22;848;48.354;10.064;2023-12-20T09:55:17;6.40;99.90
1702;DHT22;848;48.354;10.064;2023-12-20T09:57:44;6.40;99.90
1702;DHT22;848;48.354;10.064;2023-12-20T10:00:12;6.40;99.90
1702;DHT22;848;48.354;10.064;2023-12-20T10:02:45;6.40;99.90
1702;DHT22;848;48.354;10.064;2023-12-20T10:05:16;6.40;99.90
1702;DHT22;848;48.354;10.064;2023-12-20T10:07:46;6.50;99.90
1702;DHT22;848;48.354;10.064;2023-12-20T10:10:14;6.60;99.90
1702;DHT22;848;48.354;10.064;2023-12-20T10:13:01;6.80;99.90
1702;DHT22;848;48.354;10.064;2023-12-20T10:15:28;6.90;99.90
1702;DHT22;848;48.354;10.064;2023-12-20T10:17:56;6.90;99.90
1702;DHT22;848;48.354;10.064;2023-12-20T10:20:23;7.00;99.90
1702;DHT22;848;48.354;10.064;2023-12-20T10:22:51;7.10;99.90
1702;DHT22;848;48.354;10.064;2023-12-20T10:25:19;6.90;99.90
1702;DHT22;848;48.354;10.064;2023-12-20T10:27:46;7.00;99.90
1702;DHT22;848;48.354;10.064;2023-12-20T10:30:13;7.10;99.90
1702;DHT22;848;48.354;10.064;2023-12-20T10:32:40;7.30;99.90
1702;DHT22;848;48.354;10.064;2023-12-20T10:35:08;7.50;99.90
1702;DHT22;848;48.354;10.064;2023-12-20T10:37:36;7.70;99.90
1702;DHT22;848;48.354;10.064;2023-12-20T10:40:06;7.60;99.90
1702;DHT22;848;48.354;10.064;2023-12-20T10:42:33;7.30;99.90
1702;DHT22;848;48.354;10.064;2023-12-20T10:45:01;7.30;99.90
1702;DHT22;848;48.354;10.064;2023-12-20T10:47:30;7.30;99.90
1702;DHT22;848;48.354;10.064;2023-12-20T10:49:59;7.20;99.90
1702;DHT22;848;48.354;10.064;2023-12-20T10:52:28;7.20;99.90
1702;DHT22;848;48.354;10.064;2023-12-20T10:54:56;7.20;99.90
1702;DHT22;848;48.354;10.064;2023-12-20T10:57:26;7.10;99.90
1702;DHT22;848;48.354;10.064;2023-12-20T10:59:54;6.90;99.90
1702;DHT22;848;48.354;10.064;2023-12-20T11:02:22;6.30;99.90
1702;DHT22;848;48.354;10.064;2023-12-20T11:04:55;6.00;99.90
1702;DHT22;848;48.354;10.064;2023-12-20T11:07:29;5.80;99.90
1702;DHT22;848;48.354;10.064;2023-12-20T11:12:47;5.80;99.90
1702;DHT22;848;48.354;10.064;2023-12-20T11:15:15;5.80;99.90
1702;DHT22;848;48.354;10.064;2023-12-20T11:17:44;5.80;99.90
1702;DHT22;848;48.354;10.064;2023-12-20T11:20:12;5.70;99.90
1702;DHT22;848;48.354;10.064;2023-12-20T11:22:40;5.70;99.90
1702;DHT22;848;48.354;10.064;2023-12-20T11:25:18;5.70;99.90
1702;DHT22;848;48.354;10.064;2023-12-20T11:28:07;5.70;99.90
1702;DHT22;848;48.354;10.064;2023-12-20T11:30:41;5.60;99.90
1702;DHT22;848;48.354;10.064;2023-12-20T11:33:08;5.50;99.90
1702;DHT22;848;48.354;10.064;2023-12-20T11:35:35;5.50;99.90
1702;DHT22;848;48.354;10.064;2023-12-20T11:38:02;5.50;99.90
1702;DHT22;848;48.354;10.064;2023-12-20T11:40:34;5.60;99.90
1702;DHT22;848;48.354;10.064;2023-12-20T11:43:06;5.60;99.90
1702;DHT22;848;48.354;10.064;2023-12-20T11:45:34;5.60;99.90
1702;DHT22;848;48.354;10.064;2023-12-20T11:48:02;5.60;99.90
1702;DHT22;848;48.354;10.064;2023-12-20T11:50:29;5.70;99.90
1702;DHT22;848;48.354;10.064;2023-12-20T11:52:56;5.70;99.90
1702;DHT22;848;48.354;10.064;2023-12-20T11:55:23;5.80;99.90
1702;DHT22;848;48.354;10.064;2023-12-20T11:57:50;5.70;99.90
1702;DHT22;848;48.354;10.064;2023-12-20T12:00:18;5.80;99.90
1702;DHT22;848;48.354;10.064;2023-12-20T12:02:56;5.90;99.90
1702;DHT22;848;48.354;10.064;2023-12-20T12:05:23;5.90;99.90
1702;DHT22;848;48.354;10.064;2023-12-20T12:07:50;6.00;99.90
1702;DHT22;848;48.354;10.064;2023-12-20T12:10:17;6.10;99.90
1702;DHT22;848;48.354;10.064;2023-12-20T12:12:44;6.10;99.90
1702;DHT22;848;48.354;10.064;2023-12-20T12:15:10;6.00;99.90
1702;DHT22;848;48.354;10.064;2023-12-20T12:17:39;6.00;99.90
1702;DHT22;848;48.354;10.064;2023-12-20T12:20:07;6.00;99.90
1702;DHT22;848;48.354;10.064;2023-12-20T12:22:35;6.00;99.90
1702;DHT22;848;48.354;10.064;2023-12-20T12:25:10;6.00;99.90
1702;DHT22;848;48.354;10.064;2023-12-20T12:27:37;5.90;99.90
1702;DHT22;848;48.354;10.064;2023-12-20T12:30:05;5.90;99.90
1702;DHT22;848;48.354;10.064;2023-12-20T12:32:33;6.00;99.90
1702;DHT22;848;48.354;10.064;2023-12-20T12:35:03;6.00;99.90
1702;DHT22;848;48.354;10.064;2023-12-20T12:37:33;5.90;99.90
1702;DHT22;848;48.354;10.064;2023-12-20T12:40:00;5.90;99.90
1702;DHT22;848;48.354;10.064;2023-12-20T12:42:28;5.90;99.90
1702;DHT22;848;48.354;10.064;2023-12-20T12:44:57;5.90;99.90
1702;DHT22;848;48.354;10.064;2023-12-20T12:47:24;5.90;99.90
1702;DHT22;848;48.354;10.064;2023-12-20T12:49:52;6.00;99.90
1702;DHT22;848;48.354;10.064;2023-12-20T12:52:20;6.10;99.90
1702;DHT22;848;48.354;10.064;2023-12-20T12:54:48;6.10;99.90
1702;DHT22;848;48.354;10.064;2023-12-20T12:57:15;6.20;99.90
1702;DHT22;848;48.354;10.064;2023-12-20T12:59:43;6.10;99.90
1702;DHT22;848;48.354;10.064;2023-12-20T13:02:11;6.20;99.90
1702;DHT22;848;48.354;10.064;2023-12-20T13:04:38;6.20;99.90
1702;DHT22;848;48.354;10.064;2023-12-20T13:07:05;6.00;99.90
1702;DHT22;848;48.354;10.064;2023-12-20T13:09:34;5.90;99.90
1702;DHT22;848;48.354;10.064;2023-12-20T13:12:01;6.00;99.90
1702;DHT22;848;48.354;10.064;2023-12-20T13:14:29;6.00;99.90
1702;DHT22;848;48.354;10.064;2023-12-20T13:16:56;5.90;99.90
1702;DHT22;848;48.354;10.064;2023-12-20T13:19:23;5.90;99.90
1702;DHT22;848;48.354;10.064;2023-12-20T13:21:50;5.90;99.90
1702;DHT22;848;48.354;10.064;2023-12-20T13:24:16;5.90;99.90
1702;DHT22;848;48.354;10.064;2023-12-20T13:26:45;5.90;99.90
1702;DHT22;848;48.354;10.064;2023-12-20T13:29:12;5.90;99.90
1702;DHT22;848;48.354;10.064;2023-12-20T13:31:39;5.80;99.90
1702;DHT22;848;48.354;10.064;2023-12-20T13:34:07;5.90;99.90
1702;DHT22;848;48.354;10.064;2023-12-20T13:36:34;5.90;99.90
1702;DHT22;848;48.354;10.064;2023-12-20T13:39:02;5.80;99.90
1702;DHT22;848;48.354;10.064;2023-12-20T13:41:30;5.90;99.90
1702;DHT22;848;48.354;10.064;2023-12-20T13:43:58;5.90;99.90
1702;DHT22;848;48.354;10.064;2023-12-20T13:46:27;5.80;99.90
1702;DHT22;848;48.354;10.064;2023-12-20T13:48:54;5.80;99.90
1702;DHT22;848;48.354;10.064;2023-12-20T13:51:21;5.80;99.90
1702;DHT22;848;48.354;10.064;2023-12-20T13:53:48;5.80;99.90
1702;DHT22;848;48.354;10.064;2023-12-20T13:56:15;5.70;99.90
1702;DHT22;848;48.354;10.064;2023-12-20T13:58:42;5.70;99.90
1702;DHT22;848;48.354;10.064;2023-12-20T14:01:10;5.60;99.90
1702;DHT22;848;48.354;10.064;2023-12-20T14:03:36;5.60;99.90
1702;DHT22;848;48.354;10.064;2023-12-20T14:06:03;5.70;99.90
1702;DHT22;848;48.354;10.064;2023-12-20T14:08:30;5.70;99.90
1702;DHT22;848;48.354;10.064;2023-12-20T14:10:57;5.80;99.90
1702;DHT22;848;48.354;10.064;2023-12-20T14:13:23;5.80;99.90
1702;DHT22;848;48.354;10.064;2023-12-20T14:15:50;5.70;99.90
1702;DHT22;848;48.354;10.064;2023-12-20T14:18:28;5.70;99.90
1702;DHT22;848;48.354;10.064;2023-12-20T14:20:56;5.60;99.90
1702;DHT22;848;48.354;10.064;2023-12-20T14:23:23;5.70;99.90
1702;DHT22;848;48.354;10.064;2023-12-20T14:25:50;5.60;99.90
1702;DHT22;848;48.354;10.064;2023-12-20T14:30:44;5.50;99.90
1702;DHT22;848;48.354;10.064;2023-12-20T14:33:11;5.70;99.90
1702;DHT22;848;48.354;10.064;2023-12-20T14:35:40;5.70;99.90
1702;DHT22;848;48.354;10.064;2023-12-20T14:38:10;5.70;99.90
1702;DHT22;848;48.354;10.064;2023-12-20T14:40:38;5.60;99.90
1702;DHT22;848;48.354;10.064;2023-12-20T14:43:06;5.80;99.90
1702;DHT22;848;48.354;10.064;2023-12-20T14:45:33;5.80;99.90
1702;DHT22;848;48.354;10.064;2023-12-20T14:47:59;5.80;99.90
1702;DHT22;848;48.354;10.064;2023-12-20T14:50:26;5.80;99.90
1702;DHT22;848;48.354;10.064;2023-12-20T14:52:57;5.90;99.90
1702;DHT22;848;48.354;10.064;2023-12-20T14:55:25;5.80;99.90
1702;DHT22;848;48.354;10.064;2023-12-20T14:57:53;5.80;99.90
1702;DHT22;848;48.354;10.064;2023-12-20T15:00:19;5.70;99.90
1702;DHT22;848;48.354;10.064;2023-12-20T15:02:46;5.70;99.90
1702;DHT22;848;48.354;10.064;2023-12-20T15:05:13;5.70;99.90
1702;DHT22;848;48.354;10.064;2023-12-20T15:07:41;5.70;99.90
1702;DHT22;848;48.354;10.064;2023-12-20T15:10:09;5.60;99.90
1702;DHT22;848;48.354;10.064;2023-12-20T15:12:36;5.70;99.90
1702;DHT22;848;48.354;10.064;2023-12-20T15:15:04;5.80;99.90
1702;DHT22;848;48.354;10.064;2023-12-20T15:17:31;5.80;99.90
1702;DHT22;848;48.354;10.064;2023-12-20T15:19:58;5.90;99.90
1702;DHT22;848;48.354;10.064;2023-12-20T15:22:26;5.90;99.90
1702;DHT22;848;48.354;10.064;2023-12-20T15:24:53;5.90;99.90
1702;DHT22;848;48.354;10.064;2023-12-20T15:27:22;5.90;99.90
1702;DHT22;848;48.354;10.064;2023-12-20T15:29:49;6.00;99.90
1702;DHT22;848;48.354;10.064;2023-12-20T15:32:17;5.70;99.90
1702;DHT22;848;48.354;10.064;2023-12-20T15:34:44;5.80;99.90
1702;DHT22;848;48.354;10.064;2023-12-20T15:37:11;5.80;99.90
1702;DHT22;848;48.354;10.064;2023-12-20T15:39:38;5.80;99.90
1702;DHT22;848;48.354;10.064;2023-12-20T15:42:05;5.70;99.90
1702;DHT22;848;48.354;10.064;2023-12-20T15:44:33;5.70;99.90
1702;DHT22;848;48.354;10.064;2023-12-20T15:47:00;5.70;99.90
1702;DHT22;848;48.354;10.064;2023-12-20T15:49:27;5.70;99.90
1702;DHT22;848;48.354;10.064;2023-12-20T15:51:54;5.70;99.90
1702;DHT22;848;48.354;10.064;2023-12-20T15:54:21;5.70;99.90
1702;DHT22;848;48.354;10.064;2023-12-20T15:56:48;5.70;99.90
1702;DHT22;848;48.354;10.064;2023-12-20T15:59:15;5.70;99.90
1702;DHT22;848;48.354;10.064;2023-12-20T16:01:43;5.60;99.90
1702;DHT22;848;48.354;10.064;2023-12-20T16:04:10;5.70;99.90
1702;DHT22;848;48.354;10.064;2023-12-20T16:06:37;5.70;99.90
1702;DHT22;848;48.354;10.064;2023-12-20T16:09:03;5.70;99.90
1702;DHT22;848;48.354;10.064;2023-12-20T16:11:30;5.70;99.90
1702;DHT22;848;48.354;10.064;2023-12-20T16:13:57;5.70;99.90
1702;DHT22;848;48.354;10.064;2023-12-20T16:16:24;5.70;99.90
1702;DHT22;848;48.354;10.064;2023-12-20T16:18:52;5.60;99.90
1702;DHT22;848;48.354;10.064;2023-12-20T16:21:19;5.60;99.90
1702;DHT22;848;48.354;10.064;2023-12-20T16:23:46;5.60;99.90
1702;DHT22;848;48.354;10.064;2023-12-20T16:26:13;5.60;99.90